Time;durP1;ratioP1;P1;durP2;ratioP2;P2;SDS_P1;SDS_P2;PMS_P1;PMS_P2;Temp;Humidity;BMP_temperature;BMP_pressure;BME280_temperature;BME280_humidity;BME280_pressure;Samples;Min_cycle;Max_cycle;Signal;HPM_P1;HPM_P2
2022/04/23 00:01:15;;;;;;;5.60;3.45;;;17.40;49.70;;;;;;6057263;23;20374;-95
2022/04/23 00:03:41;;;;;;;4.88;3.25;;;17.40;49.70;;;;;;6060405;23;20124;-91
2022/04/23 00:06:06;;;;;;;6.72;3.78;;;17.40;49.80;;;;;;6059000;23;20014;-94
2022/04/23 00:08:35;;;;;;;7.50;4.25;;;17.30;49.80;;;;;;6059428;23;20012;-94
2022/04/23 00:11:00;;;;;;;5.75;3.53;;;17.30;49.90;;;;;;6058165;23;20010;-94
2022/04/23 00:13:26;;;;;;;6.53;3.95;;;17.30;50.00;;;;;;6059403;23;20473;-94
2022/04/23 00:15:53;;;;;;;6.45;3.38;;;17.30;50.00;;;;;;6058398;23;20446;-94
2022/04/23 00:18:19;;;;;;;6.15;4.10;;;17.60;50.20;;;;;;6058946;23;20011;-94
2022/04/23 00:20:48;;;;;;;6.00;3.50;;;17.20;50.00;;;;;;6057929;23;20014;-94
2022/04/23 00:23:14;;;;;;;5.30;3.10;;;17.20;50.10;;;;;;6058377;23;20081;-90
2022/04/23 00:25:41;;;;;;;5.82;3.42;;;17.20;50.20;;;;;;6058679;23;20034;-94
2022/04/23 00:28:09;;;;;;;5.85;3.50;;;17.20;50.20;;;;;;6059741;23;20010;-95
2022/04/23 00:30:35;;;;;;;7.25;3.47;;;17.20;50.40;;;;;;6058155;23;20356;-93
2022/04/23 00:33:02;;;;;;;6.80;3.15;;;17.20;50.50;;;;;;6057286;23;20011;-95
2022/04/23 00:35:28;;;;;;;5.13;3.20;;;17.10;50.50;;;;;;6033381;23;20476;-95
2022/04/23 00:37:54;;;;;;;5.25;3.10;;;17.10;50.60;;;;;;6058048;23;20017;-95
2022/04/23 00:40:21;;;;;;;5.90;2.90;;;17.10;50.60;;;;;;6057681;23;20018;-95
2022/04/23 00:42:53;;;;;;;5.32;3.40;;;17.00;50.60;;;;;;6057491;23;20014;-95
2022/04/23 00:45:23;;;;;;;6.28;3.13;;;17.00;50.70;;;;;;6034162;23;20022;-93
2022/04/23 00:47:49;;;;;;;6.97;4.50;;;17.00;50.70;;;;;;6055252;23;20044;-94
2022/04/23 00:50:20;;;;;;;6.40;4.10;;;17.00;50.80;;;;;;6033417;23;20010;-96
2022/04/23 00:52:50;;;;;;;8.52;4.75;;;17.00;50.90;;;;;;6059447;23;20160;-92
2022/04/23 00:55:17;;;;;;;8.85;5.20;;;16.90;50.90;;;;;;6058011;23;20069;-94
2022/04/23 00:57:43;;;;;;;8.02;5.15;;;16.90;51.10;;;;;;6057020;23;20057;-94
2022/04/23 01:00:09;;;;;;;9.23;5.20;;;16.90;51.20;;;;;;6035157;23;20023;-94
2022/04/23 01:02:36;;;;;;;8.20;5.15;;;16.90;51.20;;;;;;6034476;23;20093;-95
2022/04/23 01:05:08;;;;;;;6.93;4.88;;;16.80;51.30;;;;;;6183271;23;20021;-95
2022/04/23 01:07:38;;;;;;;10.52;5.93;;;16.90;51.40;;;;;;6036698;23;20011;-90
2022/04/23 01:10:06;;;;;;;10.57;5.50;;;16.90;51.50;;;;;;6034493;23;20018;-91
2022/04/23 01:12:35;;;;;;;9.88;5.00;;;16.90;51.50;;;;;;6034165;23;20003;-95
2022/04/23 01:15:14;;;;;;;8.57;5.43;;;16.80;51.50;;;;;;6034839;23;20038;-94
2022/04/23 01:17:41;;;;;;;9.18;5.15;;;16.80;51.60;;;;;;6037062;23;20065;-95
2022/04/23 01:20:15;;;;;;;9.45;5.03;;;16.80;51.60;;;;;;6033843;23;20596;-92
2022/04/23 01:22:44;;;;;;;9.07;5.63;;;16.80;51.70;;;;;;6035217;23;20517;-89
2022/04/23 01:25:13;;;;;;;8.27;5.35;;;16.80;51.70;;;;;;6034303;23;20265;-90
2022/04/23 01:27:40;;;;;;;10.10;6.00;;;17.00;51.80;;;;;;6035084;23;20011;-96
2022/04/23 01:30:10;;;;;;;10.20;5.57;;;16.70;51.80;;;;;;6059185;23;20010;-94
2022/04/23 01:32:36;;;;;;;8.20;5.45;;;16.70;51.80;;;;;;6035958;23;20341;-94
2022/04/23 01:35:03;;;;;;;8.15;5.65;;;16.70;51.80;;;;;;6032889;23;20112;-94
2022/04/23 01:37:29;;;;;;;10.13;6.25;;;16.70;51.90;;;;;;6033996;23;20018;-94
2022/04/23 01:39:54;;;;;;;11.63;6.38;;;16.70;52.00;;;;;;6034090;23;20018;-95
2022/04/23 01:42:20;;;;;;;9.25;5.28;;;16.70;52.00;;;;;;6032321;23;20441;-94
2022/04/23 01:44:47;;;;;;;9.77;5.60;;;17.10;52.20;;;;;;6032252;23;20045;-92
2022/04/23 01:47:13;;;;;;;11.30;5.00;;;16.70;52.10;;;;;;6033673;23;20014;-94
2022/04/23 01:49:39;;;;;;;8.73;5.32;;;16.70;52.10;;;;;;6168293;23;20473;-94
2022/04/23 01:52:05;;;;;;;10.07;6.05;;;16.60;52.10;;;;;;6037057;23;20010;-93
2022/04/23 01:54:32;;;;;;;10.38;5.72;;;16.60;52.10;;;;;;6039355;23;20014;-95
2022/04/23 01:56:59;;;;;;;10.70;6.20;;;16.70;52.10;;;;;;6091653;23;20022;-95
2022/04/23 01:59:24;;;;;;;10.60;6.70;;;16.60;52.20;;;;;;6218663;22;20024;-92
2022/04/23 02:01:51;;;;;;;9.77;5.57;;;16.60;52.20;;;;;;6219100;22;20006;-95
2022/04/23 02:04:17;;;;;;;11.38;5.85;;;16.80;52.30;;;;;;6217693;22;20005;-93
2022/04/23 02:06:43;;;;;;;9.82;6.03;;;16.50;52.20;;;;;;6219074;22;20054;-94
2022/04/23 02:09:09;;;;;;;9.32;6.10;;;16.50;52.20;;;;;;6217412;22;20014;-95
2022/04/23 02:11:35;;;;;;;8.93;5.53;;;16.50;52.30;;;;;;6217424;22;20013;-94
2022/04/23 02:14:02;;;;;;;12.57;6.97;;;16.40;52.30;;;;;;6218971;22;20420;-94
2022/04/23 02:16:29;;;;;;;8.18;5.18;;;16.40;52.40;;;;;;6218476;22;20028;-94
2022/04/23 02:18:57;;;;;;;8.30;5.55;;;16.40;52.40;;;;;;6219136;22;20044;-94
2022/04/23 02:21:24;;;;;;;11.02;5.70;;;16.30;52.50;;;;;;6218382;22;20361;-93
2022/04/23 02:23:52;;;;;;;9.55;5.68;;;16.30;52.50;;;;;;6218947;22;20040;-95
2022/04/23 02:26:20;;;;;;;11.38;6.28;;;16.30;52.50;;;;;;6217397;22;20042;-95
2022/04/23 02:28:52;;;;;;;10.77;6.05;;;16.30;52.60;;;;;;6219228;22;20006;-96
2022/04/23 02:31:17;;;;;;;10.75;6.20;;;16.20;52.50;;;;;;6219587;22;20024;-94
2022/04/23 02:33:44;;;;;;;10.27;5.40;;;16.20;52.70;;;;;;6218333;22;20096;-90
2022/04/23 02:36:11;;;;;;;9.38;4.90;;;16.20;52.70;;;;;;6092960;23;20018;-95
2022/04/23 02:38:40;;;;;;;9.85;5.65;;;16.20;52.70;;;;;;6068421;23;20009;-94
2022/04/23 02:41:06;;;;;;;10.38;5.95;;;16.10;52.70;;;;;;6217623;22;20017;-94
2022/04/23 02:43:35;;;;;;;11.60;5.85;;;16.10;52.80;;;;;;6217762;22;20732;-92
2022/04/23 02:46:05;;;;;;;9.07;5.13;;;16.10;52.80;;;;;;6218893;22;20076;-94
2022/04/23 02:48:31;;;;;;;10.23;5.00;;;16.10;52.80;;;;;;6218676;22;20033;-94
2022/04/23 02:50:57;;;;;;;8.48;5.35;;;16.10;52.90;;;;;;6217650;22;20017;-93
2022/04/23 02:53:23;;;;;;;12.10;6.57;;;16.00;52.80;;;;;;6218543;22;20005;-95
2022/04/23 02:55:51;;;;;;;10.52;6.07;;;16.30;53.10;;;;;;6218557;22;20028;-94
2022/04/23 02:58:18;;;;;;;10.65;5.43;;;16.00;52.90;;;;;;6196169;22;20018;-94
2022/04/23 03:00:44;;;;;;;9.70;5.55;;;16.00;52.90;;;;;;6085723;23;20497;-92
2022/04/23 03:03:11;;;;;;;9.65;5.50;;;16.00;53.00;;;;;;6086976;23;20006;-95
2022/04/23 03:05:42;;;;;;;11.48;6.43;;;16.00;53.00;;;;;;6188618;23;20045;-95
2022/04/23 03:08:10;;;;;;;8.18;5.40;;;15.90;53.10;;;;;;6064298;23;20392;-92
2022/04/23 03:10:36;;;;;;;9.98;6.25;;;15.90;53.00;;;;;;6187105;22;20014;-95
2022/04/23 03:13:02;;;;;;;8.52;5.70;;;15.90;53.10;;;;;;6036717;23;20006;-96
2022/04/23 03:15:28;;;;;;;9.43;5.38;;;15.90;53.10;;;;;;6084870;23;20511;-95
2022/04/23 03:18:12;;;;;;;12.25;6.53;;;15.90;53.20;;;;;;6038102;23;20014;-95
2022/04/23 03:20:40;;;;;;;11.05;6.25;;;15.90;53.30;;;;;;6187766;23;20041;-95
2022/04/23 03:23:06;;;;;;;9.70;6.13;;;15.80;53.20;;;;;;6085263;23;20010;-94
2022/04/23 03:25:32;;;;;;;9.10;5.97;;;15.80;53.20;;;;;;6188058;23;20037;-94
2022/04/23 03:28:00;;;;;;;9.55;6.45;;;15.80;53.20;;;;;;6086842;23;20033;-94
2022/04/23 03:30:27;;;;;;;10.30;6.57;;;15.90;53.30;;;;;;6086147;23;20038;-94
2022/04/23 03:32:53;;;;;;;11.02;6.75;;;15.80;53.30;;;;;;6039489;23;20013;-94
2022/04/23 03:35:19;;;;;;;11.57;6.18;;;15.80;53.30;;;;;;6087012;23;20526;-94
2022/04/23 03:37:45;;;;;;;11.32;6.43;;;15.80;53.40;;;;;;6190970;23;20084;-95
2022/04/23 03:40:12;;;;;;;12.90;7.25;;;15.80;53.50;;;;;;6041200;23;20041;-94
2022/04/23 03:42:38;;;;;;;12.00;6.85;;;15.80;53.60;;;;;;6087949;23;20014;-95
2022/04/23 03:45:09;;;;;;;10.85;6.60;;;16.00;53.70;;;;;;6039216;23;20592;-91
2022/04/23 03:47:35;;;;;;;12.73;7.30;;;15.80;53.70;;;;;;6041111;23;20030;-95
2022/04/23 03:50:09;;;;;;;12.60;7.35;;;15.90;53.80;;;;;;6087167;23;20017;-94
2022/04/23 03:52:34;;;;;;;10.60;6.50;;;15.90;53.90;;;;;;6189205;23;20151;-94
2022/04/23 03:55:00;;;;;;;11.55;6.70;;;15.90;54.00;;;;;;6086126;23;20081;-94
2022/04/23 03:57:27;;;;;;;12.13;6.90;;;16.30;54.20;;;;;;6098172;23;20041;-93
2022/04/23 03:59:53;;;;;;;14.82;7.05;;;15.90;54.00;;;;;;6218715;22;20014;-96
2022/04/23 04:02:19;;;;;;;14.82;6.75;;;15.90;54.00;;;;;;6065931;23;20400;-93
2022/04/23 04:04:45;;;;;;;10.73;6.43;;;16.00;54.00;;;;;;6220171;22;20021;-90
2022/04/23 04:07:18;;;;;;;10.68;6.22;;;15.90;54.00;;;;;;6221925;22;20084;-94
2022/04/23 04:09:44;;;;;;;10.68;6.32;;;16.00;54.00;;;;;;6091886;22;20017;-89
2022/04/23 04:12:10;;;;;;;14.00;7.45;;;15.90;54.00;;;;;;6218572;22;20013;-93
2022/04/23 04:14:36;;;;;;;11.23;6.60;;;15.90;54.00;;;;;;6219226;22;20027;-95
2022/04/23 04:17:09;;;;;;;11.52;6.90;;;15.90;54.00;;;;;;6092324;23;20063;-94
2022/04/23 04:19:35;;;;;;;13.45;7.18;;;16.30;54.20;;;;;;6090743;22;20014;-95
2022/04/23 04:22:04;;;;;;;10.85;6.80;;;15.90;54.10;;;;;;6221034;22;20405;-93
2022/04/23 04:24:31;;;;;;;11.32;6.88;;;16.00;54.10;;;;;;6090414;22;20037;-94
2022/04/23 04:26:58;;;;;;;13.20;6.85;;;15.90;54.10;;;;;;6219560;22;20013;-95
2022/04/23 04:29:25;;;;;;;10.55;7.00;;;15.90;54.10;;;;;;6092370;23;20005;-94
2022/04/23 04:31:51;;;;;;;11.35;6.93;;;16.00;54.20;;;;;;6092167;23;20060;-94
2022/04/23 04:34:18;;;;;;;11.38;7.55;;;15.90;54.30;;;;;;6089841;23;20059;-94
2022/04/23 04:36:45;;;;;;;10.30;6.30;;;15.90;54.30;;;;;;6115704;23;20527;-90
2022/04/23 04:39:11;;;;;;;11.48;6.78;;;16.30;54.50;;;;;;6221346;22;20005;-95
2022/04/23 04:41:37;;;;;;;11.65;7.00;;;15.90;54.30;;;;;;6218286;22;20373;-94
2022/04/23 04:44:05;;;;;;;11.80;6.38;;;15.90;54.40;;;;;;6092117;23;20051;-94
2022/04/23 04:46:34;;;;;;;12.35;7.25;;;15.90;54.30;;;;;;6067611;23;20034;-93
2022/04/23 04:49:01;;;;;;;12.02;7.28;;;15.90;54.40;;;;;;6219053;22;20096;-95
2022/04/23 04:51:27;;;;;;;11.00;6.80;;;15.90;54.40;;;;;;6219140;22;20092;-95
2022/04/23 04:53:53;;;;;;;13.75;7.50;;;15.90;54.40;;;;;;6220362;22;20048;-94
2022/04/23 04:56:19;;;;;;;12.85;6.95;;;15.90;54.40;;;;;;6217682;22;20017;-94
2022/04/23 04:58:46;;;;;;;14.10;7.65;;;15.90;54.50;;;;;;6190721;22;20021;-93
2022/04/23 05:01:12;;;;;;;14.23;7.45;;;15.90;55.10;;;;;;6039216;23;20180;-95
2022/04/23 05:03:40;;;;;;;13.18;6.95;;;15.90;54.70;;;;;;6191294;23;20001;-94
2022/04/23 05:06:10;;;;;;;9.52;6.15;;;15.90;54.70;;;;;;6039235;23;20014;-93
2022/04/23 05:08:36;;;;;;;9.82;6.00;;;15.90;54.60;;;;;;6189739;23;20072;-96
2022/04/23 05:11:03;;;;;;;12.52;7.53;;;15.90;54.60;;;;;;6086060;23;20455;-93
2022/04/23 05:13:29;;;;;;;11.60;6.95;;;15.90;54.70;;;;;;6188500;23;20120;-95
2022/04/23 05:15:56;;;;;;;10.48;6.70;;;15.90;54.80;;;;;;6038680;23;20072;-92
2022/04/23 05:18:22;;;;;;;10.00;6.50;;;15.90;55.40;;;;;;6038811;23;20045;-93
2022/04/23 05:20:48;;;;;;;11.75;6.97;;;15.80;54.90;;;;;;6062534;23;20041;-95
2022/04/23 05:23:14;;;;;;;9.23;6.55;;;15.80;55.00;;;;;;6190099;23;20010;-94
2022/04/23 05:25:40;;;;;;;18.95;6.63;;;15.80;55.00;;;;;;6190174;23;20253;-95
2022/04/23 05:28:06;;;;;;;13.25;7.35;;;15.80;55.10;;;;;;6062876;23;20545;-94
2022/04/23 05:30:32;;;;;;;10.65;6.53;;;15.80;55.20;;;;;;6189129;23;20526;-94
2022/04/23 05:32:58;;;;;;;12.48;6.60;;;15.80;55.30;;;;;;6190513;23;20010;-94
2022/04/23 05:35:23;;;;;;;9.70;6.05;;;15.80;55.40;;;;;;6188826;23;20010;-93
2022/04/23 05:37:49;;;;;;;14.20;6.68;;;15.80;55.40;;;;;;6188804;23;20017;-94
2022/04/23 05:40:15;;;;;;;12.93;7.00;;;15.80;55.50;;;;;;6187822;23;20018;-94
2022/04/23 05:42:41;;;;;;;10.32;6.05;;;15.80;55.60;;;;;;6061847;23;20006;-89
2022/04/23 05:45:07;;;;;;;10.10;6.25;;;15.80;55.50;;;;;;6063944;22;20018;-95
2022/04/23 05:47:33;;;;;;;9.38;6.00;;;15.80;55.60;;;;;;6062364;23;20026;-94
2022/04/23 05:49:58;;;;;;;13.07;6.55;;;15.80;55.70;;;;;;6186892;22;20002;-94
2022/04/23 05:52:24;;;;;;;9.82;6.53;;;15.70;55.70;;;;;;6188531;23;20013;-92
2022/04/23 05:54:50;;;;;;;10.60;6.43;;;15.80;55.80;;;;;;6188383;22;20006;-94
2022/04/23 05:57:16;;;;;;;9.32;5.95;;;15.70;55.90;;;;;;6192527;22;20279;-94
2022/04/23 05:59:42;;;;;;;10.30;6.53;;;15.70;56.00;;;;;;6087388;23;20006;-90
2022/04/23 06:02:08;;;;;;;10.68;6.00;;;15.70;56.20;;;;;;6086907;22;20018;-94
2022/04/23 06:04:36;;;;;;;23.48;7.18;;;15.70;56.20;;;;;;6087941;23;20010;-89
2022/04/23 06:07:03;;;;;;;12.68;6.15;;;15.70;56.30;;;;;;6086256;23;20040;-93
2022/04/23 06:09:29;;;;;;;11.93;6.15;;;15.70;56.30;;;;;;6088148;23;20062;-94
2022/04/23 06:11:55;;;;;;;10.63;6.45;;;15.70;56.40;;;;;;6085514;23;20015;-95
2022/04/23 06:14:21;;;;;;;10.30;5.63;;;15.70;56.80;;;;;;6214599;22;20013;-94
2022/04/23 06:16:47;;;;;;;12.63;7.10;;;15.70;57.10;;;;;;6214414;22;20044;-95
2022/04/23 06:19:12;;;;;;;13.48;7.05;;;15.80;57.50;;;;;;6214245;22;20065;-94
2022/04/23 06:21:38;;;;;;;13.02;7.65;;;15.70;58.10;;;;;;6087880;22;20076;-94
2022/04/23 06:24:05;;;;;;;11.55;7.30;;;15.70;58.70;;;;;;6086148;23;20380;-92
2022/04/23 06:26:32;;;;;;;11.18;6.63;;;15.70;59.30;;;;;;6211668;23;20029;-94
2022/04/23 06:28:57;;;;;;;12.07;6.07;;;15.60;60.60;;;;;;6212708;23;20002;-95
2022/04/23 06:31:23;;;;;;;10.35;6.70;;;15.60;60.40;;;;;;6085173;22;20538;-95
2022/04/23 06:33:49;;;;;;;10.52;6.60;;;15.50;60.50;;;;;;6085828;23;20392;-95
2022/04/23 06:36:15;;;;;;;11.95;6.82;;;15.50;61.00;;;;;;6211603;23;20093;-96
2022/04/23 06:38:41;;;;;;;8.80;6.22;;;15.50;61.20;;;;;;6087098;23;20092;-94
2022/04/23 06:41:07;;;;;;;11.60;6.53;;;15.50;61.50;;;;;;6210162;23;20038;-94
2022/04/23 06:43:32;;;;;;;10.73;6.28;;;15.50;61.80;;;;;;6213641;23;20126;-94
2022/04/23 06:45:59;;;;;;;9.75;6.30;;;15.50;61.70;;;;;;6083451;23;20021;-94
2022/04/23 06:48:25;;;;;;;13.45;6.45;;;15.50;61.60;;;;;;6087390;23;20014;-91
2022/04/23 06:50:51;;;;;;;8.75;6.47;;;15.60;62.00;;;;;;6213148;22;20032;-95
2022/04/23 06:53:17;;;;;;;10.48;6.20;;;15.60;62.90;;;;;;6214553;23;20006;-95
2022/04/23 06:55:43;;;;;;;12.50;7.22;;;15.60;61.80;;;;;;6213954;22;20021;-92
2022/04/23 06:58:08;;;;;;;10.63;6.22;;;15.60;61.90;;;;;;6091010;22;20013;-95
2022/04/23 07:00:34;;;;;;;9.95;5.95;;;15.60;62.10;;;;;;6090470;22;20044;-94
2022/04/23 07:03:00;;;;;;;13.73;6.25;;;15.90;61.90;;;;;;6092547;22;20448;-92
2022/04/23 07:05:26;;;;;;;8.98;6.00;;;15.60;61.80;;;;;;6220579;22;20018;-95
2022/04/23 07:08:01;;;;;;;9.82;6.95;;;15.60;62.00;;;;;;6092127;22;20035;-94
2022/04/23 07:10:29;;;;;;;10.00;6.53;;;15.60;61.90;;;;;;6092254;22;20101;-95
2022/04/23 07:12:56;;;;;;;11.23;6.38;;;15.60;61.70;;;;;;6246330;22;20006;-95
2022/04/23 07:15:23;;;;;;;10.50;6.32;;;15.60;62.00;;;;;;6092621;22;20008;-93
2022/04/23 07:17:50;;;;;;;10.10;6.25;;;15.60;62.30;;;;;;6092814;22;20013;-94
2022/04/23 07:20:18;;;;;;;12.75;7.03;;;15.40;62.60;;;;;;6093031;22;20020;-89
2022/04/23 07:24:02;;;;;;;10.57;6.45;;;15.60;62.80;;;;;;6070831;23;20013;-94
2022/04/23 07:25:32;;;;;;;11.95;6.72;;;15.60;63.20;;;;;;6101105;22;20024;-91
2022/04/23 07:27:58;;;;;;;10.50;6.43;;;15.60;63.40;;;;;;6092191;23;20013;-94
2022/04/23 07:30:25;;;;;;;11.65;6.85;;;15.60;64.00;;;;;;6094339;22;20010;-90
2022/04/23 07:32:55;;;;;;;12.60;7.18;;;15.60;64.00;;;;;;6091906;23;20012;-94
2022/04/23 07:38:32;;;;;;;9.32;7.10;;;15.60;64.20;;;;;;6121653;22;20483;-95
2022/04/23 07:40:58;;;;;;;10.32;6.63;;;15.80;64.60;;;;;;6096064;22;20021;-95
2022/04/23 07:43:24;;;;;;;10.90;6.53;;;15.60;64.40;;;;;;6093401;22;20024;-96
2022/04/23 07:45:50;;;;;;;12.23;7.70;;;15.60;64.90;;;;;;6092796;22;20045;-93
2022/04/23 07:48:15;;;;;;;11.65;7.18;;;15.60;65.20;;;;;;6094800;22;20044;-90
2022/04/23 07:50:45;;;;;;;11.45;7.25;;;15.60;65.50;;;;;;6120843;22;20014;-95
2022/04/23 07:53:12;;;;;;;10.95;5.68;;;15.60;65.10;;;;;;6094563;22;20451;-96
2022/04/23 07:55:38;;;;;;;8.75;5.55;;;15.60;65.30;;;;;;6091609;22;20085;-95
2022/04/23 07:58:05;;;;;;;9.95;5.63;;;15.70;65.20;;;;;;6092880;22;20343;-93
2022/04/23 08:00:34;;;;;;;10.80;6.10;;;15.70;64.90;;;;;;6093988;22;20492;-95
2022/04/23 08:03:00;;;;;;;10.10;6.82;;;16.00;65.00;;;;;;6096254;22;20013;-95
2022/04/23 08:05:25;;;;;;;9.80;6.38;;;15.70;65.30;;;;;;6093118;22;20006;-94
2022/04/23 08:07:51;;;;;;;10.73;6.40;;;15.70;65.40;;;;;;6093322;22;20026;-95
2022/04/23 08:10:17;;;;;;;9.70;6.45;;;16.00;65.70;;;;;;6094420;22;20060;-91
2022/04/23 08:12:43;;;;;;;11.43;7.07;;;15.80;65.50;;;;;;6095463;23;19997;-95
2022/04/23 08:15:11;;;;;;;10.10;6.60;;;15.90;65.70;;;;;;6094547;22;20080;-96
2022/04/23 08:17:38;;;;;;;11.48;7.13;;;15.80;65.40;;;;;;6094190;22;20365;-96
2022/04/23 08:20:05;;;;;;;11.93;6.63;;;15.80;65.30;;;;;;6094256;22;20357;-90
2022/04/23 08:22:31;;;;;;;11.00;7.45;;;15.80;65.50;;;;;;6092554;22;20069;-94
2022/04/23 08:24:57;;;;;;;11.60;7.18;;;15.90;66.00;;;;;;6221738;22;20061;-94
2022/04/23 08:27:23;;;;;;;9.43;6.95;;;15.90;66.30;;;;;;6090050;22;20087;-94
2022/04/23 08:32:35;;;;;;;9.57;6.63;;;15.90;66.40;;;;;;6120416;22;20063;-94
2022/04/23 08:35:04;;;;;;;9.68;7.00;;;15.90;66.20;;;;;;6093951;22;20014;-95
2022/04/23 08:37:30;;;;;;;10.65;7.20;;;15.90;66.20;;;;;;6100069;22;20358;-93
2022/04/23 08:39:56;;;;;;;9.40;6.18;;;15.90;66.70;;;;;;6095947;23;20013;-95
2022/04/23 08:42:21;;;;;;;10.35;6.75;;;15.90;66.50;;;;;;6066205;22;20041;-95
2022/04/23 08:44:47;;;;;;;10.38;7.13;;;15.90;66.20;;;;;;6094827;23;20440;-96
2022/04/23 08:47:16;;;;;;;20.38;7.90;;;16.00;66.90;;;;;;6093860;22;20103;-94
2022/04/23 08:49:42;;;;;;;10.32;7.55;;;16.00;67.00;;;;;;6069989;23;20005;-95
2022/04/23 08:52:27;;;;;;;12.23;7.28;;;16.00;66.90;;;;;;6091522;22;20056;-93
2022/04/23 08:54:54;;;;;;;10.65;8.25;;;16.10;66.90;;;;;;6093180;22;20292;-95
2022/04/23 08:57:20;;;;;;;12.93;7.32;;;16.10;66.80;;;;;;6091471;22;20025;-94
2022/04/23 08:59:48;;;;;;;11.57;7.28;;;16.10;67.20;;;;;;6096231;23;20026;-95
2022/04/23 09:02:14;;;;;;;10.38;6.18;;;16.10;67.20;;;;;;6097915;22;20554;-94
2022/04/23 09:04:44;;;;;;;11.60;8.05;;;16.10;66.80;;;;;;6222603;22;20006;-94
2022/04/23 09:07:23;;;;;;;11.02;7.20;;;16.10;66.70;;;;;;6093817;22;20041;-94
2022/04/23 09:09:51;;;;;;;12.65;7.72;;;16.10;66.60;;;;;;6094812;22;20096;-91
2022/04/23 09:12:18;;;;;;;12.77;7.03;;;16.20;66.60;;;;;;6094506;22;20075;-94
2022/04/23 09:14:45;;;;;;;11.18;7.70;;;16.20;66.60;;;;;;6096148;23;20062;-92
2022/04/23 09:25:47;;;;;;;12.03;7.73;;;16.30;67.30;;;;;;6122441;22;20510;-95
2022/04/23 09:28:14;;;;;;;11.88;7.40;;;16.30;67.90;;;;;;6069811;22;20257;-94
2022/04/23 09:30:40;;;;;;;12.35;7.43;;;16.30;67.60;;;;;;6116282;22;20016;-93
2022/04/23 09:33:06;;;;;;;11.25;7.10;;;16.50;67.80;;;;;;6093504;22;20059;-95
2022/04/23 09:35:32;;;;;;;13.48;7.07;;;16.30;67.70;;;;;;6094549;22;20041;-94
2022/04/23 09:38:16;;;;;;;13.65;7.85;;;16.40;68.30;;;;;;6095671;22;20010;-94
2022/04/23 09:40:42;;;;;;;11.23;7.85;;;16.40;67.50;;;;;;6093664;22;20010;-94
2022/04/23 09:43:11;;;;;;;11.75;7.82;;;16.40;67.80;;;;;;6219049;22;20013;-94
2022/04/23 09:45:43;;;;;;;9.65;6.32;;;16.40;67.60;;;;;;6220273;22;20009;-95
2022/04/23 09:48:12;;;;;;;11.10;7.35;;;16.50;67.90;;;;;;6094629;22;20093;-94
2022/04/23 09:50:39;;;;;;;12.10;6.10;;;16.50;67.80;;;;;;6116079;22;20441;-94
2022/04/23 09:53:17;;;;;;;10.15;6.93;;;16.50;67.10;;;;;;6092746;22;20006;-94
2022/04/23 09:55:47;;;;;;;11.57;7.05;;;16.60;66.80;;;;;;6093017;22;20013;-95
2022/04/23 09:58:13;;;;;;;10.35;7.30;;;16.60;67.00;;;;;;6071836;23;20571;-95
2022/04/23 10:00:45;;;;;;;12.05;7.72;;;16.60;67.40;;;;;;6189195;22;20024;-95
2022/04/23 10:03:15;;;;;;;12.20;7.65;;;16.60;66.60;;;;;;6190049;23;20005;-96
2022/04/23 10:05:46;;;;;;;12.32;7.88;;;16.70;66.40;;;;;;6188944;22;20033;-94
2022/04/23 10:08:17;;;;;;;11.13;7.45;;;16.40;66.00;;;;;;6188353;23;20006;-96
2022/04/23 10:11:00;;;;;;;10.30;6.38;;;16.70;65.80;;;;;;6064136;22;20009;-94
2022/04/23 10:13:29;;;;;;;10.60;7.20;;;16.80;65.90;;;;;;6088621;23;20257;-96
2022/04/23 10:15:58;;;;;;;10.15;6.65;;;16.90;65.80;;;;;;6190472;22;20676;-95
2022/04/23 10:18:24;;;;;;;12.65;7.47;;;16.80;65.80;;;;;;6189831;23;20121;-96
2022/04/23 10:20:54;;;;;;;10.80;6.60;;;17.00;65.60;;;;;;6062698;22;20014;-93
2022/04/23 10:23:43;;;;;;;11.13;7.43;;;17.00;65.30;;;;;;6065314;23;20041;-90
2022/04/23 10:26:32;;;;;;;9.18;5.75;;;17.00;65.10;;;;;;6086987;23;20508;-96
2022/04/23 10:28:58;;;;;;;8.73;6.60;;;17.00;65.00;;;;;;6086748;23;20023;-96
2022/04/23 10:31:23;;;;;;;10.15;6.35;;;17.00;65.30;;;;;;6187561;23;20048;-95
2022/04/23 10:33:51;;;;;;;11.15;6.30;;;17.00;64.90;;;;;;6063759;23;20042;-91
2022/04/23 10:36:21;;;;;;;10.00;6.57;;;17.10;64.30;;;;;;6188866;23;20014;-95
2022/04/23 10:39:08;;;;;;;11.18;7.18;;;17.10;64.00;;;;;;6063487;23;20013;-95
2022/04/23 10:41:35;;;;;;;10.75;7.15;;;17.20;64.00;;;;;;6089510;23;20060;-92
2022/04/23 10:44:04;;;;;;;9.60;6.68;;;17.10;63.90;;;;;;6188514;23;20017;-95
2022/04/23 10:46:40;;;;;;;10.77;6.68;;;17.20;64.20;;;;;;6061752;23;20037;-96
2022/04/23 10:49:25;;;;;;;11.63;7.35;;;17.20;63.90;;;;;;6084603;23;20052;-94
2022/04/23 10:51:58;;;;;;;9.50;6.80;;;17.30;63.60;;;;;;6189342;23;20067;-96
2022/04/23 10:54:39;;;;;;;8.63;5.82;;;17.30;63.10;;;;;;6189044;23;20010;-92
2022/04/23 10:57:13;;;;;;;11.68;6.30;;;17.30;63.00;;;;;;6087667;22;20100;-95
2022/04/23 10:59:49;;;;;;;9.40;5.85;;;17.40;62.90;;;;;;6214759;23;20036;-95
2022/04/23 11:02:24;;;;;;;10.30;6.32;;;17.40;62.90;;;;;;6065148;23;20469;-94
2022/04/23 11:13:48;;;;;;;10.57;5.72;;;17.60;62.30;;;;;;6090745;23;20319;-95
2022/04/23 11:16:29;;;;;;;11.60;5.35;;;17.60;62.20;;;;;;6084392;23;20014;-92
2022/04/23 11:18:58;;;;;;;10.90;6.90;;;17.70;62.40;;;;;;6215166;22;20010;-90
2022/04/23 11:21:32;;;;;;;7.53;5.00;;;17.70;61.70;;;;;;6086843;23;20022;-89
2022/04/23 11:24:02;;;;;;;10.55;5.85;;;17.80;61.00;;;;;;6085903;23;20463;-94
2022/04/23 11:26:46;;;;;;;7.57;5.03;;;17.70;61.00;;;;;;6212106;22;20036;-94
2022/04/23 11:29:15;;;;;;;9.00;4.30;;;17.80;61.00;;;;;;6086413;23;20453;-92
2022/04/23 11:31:53;;;;;;;7.03;4.18;;;17.80;60.80;;;;;;6213426;22;20469;-95
2022/04/23 11:34:19;;;;;;;7.03;4.10;;;17.90;60.60;;;;;;6085783;23;20009;-96
2022/04/23 11:36:45;;;;;;;6.22;3.42;;;17.90;60.50;;;;;;6086144;23;20508;-94
2022/04/23 11:39:13;;;;;;;8.50;4.60;;;18.00;60.70;;;;;;6214351;23;20076;-94
2022/04/23 11:41:50;;;;;;;6.85;4.10;;;18.00;60.30;;;;;;6086224;23;20018;-95
2022/04/23 11:47:12;;;;;;;6.65;3.60;;;18.10;59.60;;;;;;6091941;22;20060;-94
2022/04/23 11:49:38;;;;;;;5.95;3.95;;;18.10;59.70;;;;;;6089147;23;20002;-96
2022/04/23 11:52:14;;;;;;;7.55;3.53;;;18.20;60.00;;;;;;6088059;22;20508;-95
2022/04/23 11:54:46;;;;;;;5.82;3.50;;;18.20;59.50;;;;;;6088852;23;20546;-93
2022/04/23 11:57:17;;;;;;;6.22;3.20;;;18.30;59.40;;;;;;6091482;22;20151;-96
2022/04/23 11:59:50;;;;;;;6.65;3.40;;;18.40;58.50;;;;;;6094641;22;20342;-95
2022/04/23 12:02:24;;;;;;;12.45;4.00;;;18.40;58.60;;;;;;6094614;22;20026;-94
2022/04/23 12:05:01;;;;;;;6.38;2.80;;;18.40;58.40;;;;;;6071890;23;20022;-96
2022/04/23 12:07:27;;;;;;;9.82;3.15;;;18.50;57.90;;;;;;6094204;22;20043;-95
2022/04/23 12:09:58;;;;;;;6.40;2.90;;;18.20;57.50;;;;;;6095014;23;20092;-95
2022/04/23 12:12:33;;;;;;;8.73;3.65;;;18.50;57.50;;;;;;6092646;22;20021;-91
2022/04/23 12:15:08;;;;;;;6.72;3.05;;;18.50;57.30;;;;;;6247281;22;20310;-94
2022/04/23 12:17:48;;;;;;;;;;;18.60;57.30;;;;;;6095586;22;20041;-90
2022/04/23 12:20:22;;;;;;;5.78;3.03;;;18.70;57.40;;;;;;6193914;22;19905;-94
2022/04/23 12:23:00;;;;;;;;;;;18.70;57.50;;;;;;6092413;22;20097;-95
2022/04/23 12:25:31;;;;;;;6.43;3.25;;;18.70;57.40;;;;;;6115844;22;20256;-94
2022/04/23 12:42:12;;;;;;;6.85;2.53;;;18.80;57.00;;;;;;6116867;22;20352;-94
2022/04/23 12:44:46;;;;;;;5.15;2.75;;;18.90;56.80;;;;;;6092870;22;20009;-95
2022/04/23 12:47:15;;;;;;;4.77;2.53;;;18.90;56.90;;;;;;6091711;22;20157;-95
2022/04/23 12:49:48;;;;;;;5.18;2.70;;;18.90;56.50;;;;;;6092526;22;20273;-95
2022/04/23 12:52:29;;;;;;;8.18;3.05;;;19.00;56.30;;;;;;6114271;22;20070;-95
2022/04/23 12:55:30;;;;;;;5.18;2.90;;;19.00;56.30;;;;;;6093881;22;20009;-95
2022/04/23 12:58:09;;;;;;;6.70;2.63;;;19.10;56.10;;;;;;6093282;22;20029;-96
2022/04/23 13:00:42;;;;;;;8.40;3.20;;;19.10;56.50;;;;;;6093809;22;20014;-95
2022/04/23 13:05:51;;;;;;;4.97;2.70;;;19.10;55.90;;;;;;6121224;22;20052;-94
2022/04/23 13:11:24;;;;;;;9.35;3.78;;;19.10;55.80;;;;;;6102240;22;20017;-94
2022/04/23 13:13:47;;;;;;;4.07;2.35;;;19.10;55.70;;;;;;6101512;22;20040;-96
2022/04/23 13:16:13;;;;;;;7.00;2.53;;;19.10;55.90;;;;;;6092843;22;20040;-94
2022/04/23 13:18:39;;;;;;;6.50;2.67;;;19.20;56.10;;;;;;6219419;22;20028;-95
2022/04/23 13:21:07;;;;;;;5.72;2.45;;;19.20;56.20;;;;;;6093739;22;20037;-94
2022/04/23 13:23:33;;;;;;;7.40;3.00;;;19.20;55.80;;;;;;6092670;22;20059;-95
2022/04/23 13:26:00;;;;;;;6.63;3.05;;;19.30;55.90;;;;;;6093616;22;20016;-95
2022/04/23 13:28:25;;;;;;;4.75;2.58;;;19.30;55.40;;;;;;6096506;22;20025;-91
2022/04/23 13:30:54;;;;;;;6.40;2.80;;;19.30;55.80;;;;;;6227554;23;20375;-93
2022/04/23 13:33:20;;;;;;;3.83;2.47;;;19.40;55.70;;;;;;6091548;22;20092;-94